Phoenix, AZ (85026)

2:36 AM MST on January 30, 2015 (GMT -0700)
Sherwood Estates | Change Station
CLOSE
Current Station
Personal Weather Station
Location: Scottsdale, AZ
Elevation: 1289 ft
Nearby Weather Stations

Elev 1289 ft 33.48 °N, 111.95 °W | Updated 13 seconds ago

Light Rain
Light Rain
56.5 °F
Feels Like 56.5 °F
N
2.2
Wind Variable Wind from East
Gusts 2.7 mph

Today
High -- | Low -- °F
--% Chance of Precip.
Yesterday
High -- | Low -- °F
Precip. -- in
7:25 AM 5:57 PM
Waxing Gibbous, 81% visible
Pressure 29.94 in
Visibility 9.0 miles
Clouds Few 800 ft
Scattered Clouds 3700 ft
Overcast 5500 ft
Dew Point 56 °F
Humidity 99%
Rainfall 0.14 in
Snow Depth Not available.
UV 0 out of 12
Pollen 5.30 out of 12
Air Quality Not available.
Flu Activity Not available.
METAR KPHX 300851Z 11006KT 9SM -RA FEW008 SCT037 OVC055 15/14 A2997 RMK AO2 SLP137 P0006 60016 T01500139 56013

More Conditions Fewer Conditions

Pressure 29.94 in
Visibility 9.0 miles
Clouds Few 800 ft
Scattered Clouds 3700 ft
Overcast 5500 ft
Dew Point 56 °F
Humidity 99%
Rainfall 0.14 in
Snow Depth Not available.
UV 0 out of 12
Pollen 5.30 out of 12
Air Quality Not available.
Flu Activity Not available.
METAR KPHX 300851Z 11006KT 9SM -RA FEW008 SCT037 OVC055 15/14 A2997 RMK AO2 SLP137 P0006 60016 T01500139 56013

More Conditions Fewer Conditions

10-Day Weather Forecast

Almanac

Astronomy

Jan. 30, 2015 Rise Set
Actual Time
Civil Twilight
Nautical Twilight
Astronomical Twilight
Moon
Length of Visible Light
Length of Day
Tomorrow will be .
, % of the Moon is Illuminated

Today's Extremes

State Highs State Lows

Community

WunderPhotos

Upload Photos

1,791,737 photos uploaded!

WunderBlogs® & News

Nearby

Air Quality

  Air Quality AQ Index Pollutant
Not available.

Snow Depth

Station Depth Elevation

Earthquake Activity

City Distance Mag. Time & Date
Minimum magnitude displayed is 2.5.

Coastal Water Temperatures

Place Temperature

Nearby Weather Stations